Time;durP1;ratioP1;P1;durP2;ratioP2;P2;SDS_P1;SDS_P2;PMS_P1;PMS_P2;Temp;Humidity;BMP_temperature;BMP_pressure;BME280_temperature;BME280_humidity;BME280_pressure;Samples;Min_cycle;Max_cycle;Signal;HPM_P1;HPM_P2
2022/11/08 00:01:32;;;;;;;19.50;4.18;;;11.80;99.90;;;;;;5048772;28;20143;-82
2022/11/08 00:04:03;;;;;;;12.27;3.35;;;11.90;99.90;;;;;;5037661;28;20125;-82
2022/11/08 00:14:43;;;;;;;15.85;3.72;;;11.90;99.90;;;;;;5047475;28;20090;-81
2022/11/08 00:17:09;;;;;;;15.18;4.43;;;11.90;99.90;;;;;;5026003;28;20532;-81
2022/11/08 00:19:34;;;;;;;16.23;4.05;;;11.90;99.90;;;;;;5024957;28;20132;-82
2022/11/08 00:22:00;;;;;;;14.02;3.45;;;11.90;99.90;;;;;;5039101;28;20587;-81
2022/11/08 00:24:26;;;;;;;11.93;3.28;;;11.80;99.90;;;;;;5032903;28;20045;-82
2022/11/08 00:26:51;;;;;;;20.40;3.92;;;11.90;99.90;;;;;;5047295;28;20041;-81
2022/11/08 00:29:17;;;;;;;12.75;3.28;;;11.90;99.90;;;;;;5029999;28;20110;-82
2022/11/08 00:31:43;;;;;;;14.32;3.67;;;11.90;99.90;;;;;;5034845;28;20046;-81
2022/11/08 00:34:09;;;;;;;17.23;4.30;;;11.80;99.90;;;;;;5043263;28;20500;-82
2022/11/08 00:36:34;;;;;;;15.25;3.42;;;11.80;99.90;;;;;;5030688;28;20053;-83
2022/11/08 00:39:00;;;;;;;12.68;4.15;;;11.80;99.90;;;;;;5041254;28;20140;-81
2022/11/08 00:41:26;;;;;;;12.95;3.45;;;11.70;99.90;;;;;;5023386;28;20107;-85
2022/11/08 00:43:51;;;;;;;16.05;4.22;;;11.80;99.90;;;;;;5044202;28;20052;-82
2022/11/08 00:46:17;;;;;;;16.65;3.78;;;11.70;99.90;;;;;;5054058;28;20037;-84
2022/11/08 00:48:43;;;;;;;11.55;3.08;;;11.70;99.90;;;;;;5047305;28;20045;-82
2022/11/08 00:51:10;;;;;;;15.40;3.67;;;11.70;99.90;;;;;;5046036;28;20049;-81
2022/11/08 00:53:37;;;;;;;12.82;3.55;;;11.60;99.90;;;;;;5064049;28;20513;-81
2022/11/08 00:56:09;;;;;;;12.88;4.07;;;11.60;99.90;;;;;;5029987;28;20043;-83
2022/11/08 00:58:35;;;;;;;13.85;3.97;;;11.60;99.90;;;;;;5062477;28;20060;-82
2022/11/08 01:01:08;;;;;;;12.75;3.35;;;11.60;99.90;;;;;;5029000;28;20049;-83
2022/11/08 01:03:34;;;;;;;13.10;3.33;;;11.60;99.90;;;;;;5046924;28;20048;-81
2022/11/08 01:06:04;;;;;;;15.05;3.67;;;11.50;99.90;;;;;;5028012;28;20352;-85
2022/11/08 01:08:29;;;;;;;15.95;4.38;;;11.40;99.90;;;;;;5028618;28;20091;-82
2022/11/08 01:10:56;;;;;;;13.85;3.50;;;11.30;99.90;;;;;;5047871;28;20088;-83
2022/11/08 01:13:21;;;;;;;17.35;3.67;;;11.20;99.90;;;;;;5047362;28;20079;-82
2022/11/08 01:15:47;;;;;;;14.70;4.07;;;11.20;99.90;;;;;;5041357;28;20055;-82
2022/11/08 01:18:15;;;;;;;13.15;3.97;;;11.10;99.90;;;;;;5044028;28;20052;-82
2022/11/08 01:20:43;;;;;;;12.07;3.25;;;11.10;99.90;;;;;;5018809;28;20102;-82
2022/11/08 01:23:09;;;;;;;13.80;3.17;;;11.10;99.90;;;;;;5030575;28;20045;-82
2022/11/08 01:25:43;;;;;;;14.40;3.22;;;11.00;99.90;;;;;;5034437;28;20068;-82
2022/11/08 01:28:10;;;;;;;16.92;3.42;;;11.10;99.90;;;;;;5036853;28;20048;-82
2022/11/08 01:30:37;;;;;;;16.45;3.35;;;11.10;99.90;;;;;;5034280;28;20152;-81
2022/11/08 01:33:03;;;;;;;14.88;3.40;;;11.10;99.90;;;;;;5041757;28;20087;-85
2022/11/08 01:35:31;;;;;;;17.90;3.45;;;11.00;99.90;;;;;;5048155;28;20045;-81
2022/11/08 01:37:58;;;;;;;15.25;3.85;;;10.90;99.90;;;;;;5047434;28;20049;-81
2022/11/08 01:40:24;;;;;;;13.80;3.35;;;10.90;99.90;;;;;;5057626;28;20045;-81
2022/11/08 01:42:49;;;;;;;16.90;3.13;;;10.90;99.90;;;;;;5058909;28;20060;-82
2022/11/08 01:45:54;;;;;;;17.35;3.70;;;10.90;99.90;;;;;;5054550;28;20071;-82
2022/11/08 01:48:19;;;;;;;17.25;4.47;;;10.90;99.90;;;;;;5043090;28;20414;-82
2022/11/08 01:50:45;;;;;;;14.02;3.83;;;11.00;99.90;;;;;;5046750;28;20049;-82
2022/11/08 01:53:11;;;;;;;12.23;3.80;;;11.00;99.90;;;;;;5042511;28;20052;-81
2022/11/08 01:55:37;;;;;;;11.52;3.15;;;11.00;99.90;;;;;;5036795;28;20041;-81
2022/11/08 01:58:17;;;;;;;14.38;3.20;;;11.00;99.90;;;;;;5043253;28;20041;-82
2022/11/08 02:00:43;;;;;;;17.65;3.80;;;11.00;99.90;;;;;;5043696;28;20129;-81
2022/11/08 02:03:12;;;;;;;15.70;3.65;;;10.90;99.90;;;;;;5037012;28;20136;-82
2022/11/08 02:05:39;;;;;;;13.10;3.53;;;10.80;99.90;;;;;;5039948;28;20047;-81
2022/11/08 02:08:30;;;;;;;14.68;3.80;;;10.80;99.90;;;;;;5044128;28;20041;-81
2022/11/08 02:10:57;;;;;;;12.77;3.70;;;10.70;99.90;;;;;;5037372;28;20045;-84
2022/11/08 02:13:28;;;;;;;12.20;3.20;;;10.70;99.90;;;;;;5030209;28;20038;-82
2022/11/08 02:15:55;;;;;;;14.30;3.70;;;10.70;99.90;;;;;;5040165;28;20138;-83
2022/11/08 02:18:23;;;;;;;12.45;3.45;;;10.70;99.90;;;;;;5033432;28;20585;-85
2022/11/08 02:21:10;;;;;;;14.63;3.40;;;10.70;99.90;;;;;;5051355;28;20040;-82
2022/11/08 02:23:50;;;;;;;12.15;3.08;;;10.60;99.90;;;;;;5051004;28;20045;-83
2022/11/08 02:26:19;;;;;;;13.63;3.50;;;10.60;99.90;;;;;;5050020;28;20098;-81
2022/11/08 02:28:47;;;;;;;15.85;3.65;;;10.60;99.90;;;;;;5065510;28;20112;-81
2022/11/08 02:31:14;;;;;;;16.67;3.80;;;10.50;99.90;;;;;;5051223;28;20053;-85
2022/11/08 02:33:41;;;;;;;11.73;3.85;;;10.50;99.90;;;;;;5049021;28;20549;-82
2022/11/08 02:36:09;;;;;;;14.13;3.50;;;10.50;99.90;;;;;;5034215;28;20048;-82
2022/11/08 02:38:39;;;;;;;11.48;3.53;;;10.50;99.90;;;;;;5032150;28;20053;-83
2022/11/08 02:41:05;;;;;;;8.85;3.22;;;10.50;99.90;;;;;;5038733;28;20041;-82
2022/11/08 02:43:31;;;;;;;12.77;4.10;;;10.40;99.90;;;;;;5031421;28;20059;-81
2022/11/08 02:45:58;;;;;;;18.80;4.28;;;10.40;99.90;;;;;;5040188;28;20041;-81
2022/11/08 02:48:24;;;;;;;12.38;3.92;;;10.40;99.90;;;;;;5054605;28;20049;-81
2022/11/08 02:50:50;;;;;;;14.18;3.72;;;10.40;99.90;;;;;;5050804;28;20102;-82
2022/11/08 02:53:17;;;;;;;14.07;3.88;;;10.30;99.90;;;;;;5062764;28;20045;-87
2022/11/08 02:55:42;;;;;;;18.95;4.03;;;10.30;99.90;;;;;;5038256;28;20041;-82
2022/11/08 02:58:09;;;;;;;14.13;3.67;;;10.30;99.90;;;;;;5028238;28;20037;-81
2022/11/08 03:00:35;;;;;;;14.27;4.03;;;10.30;99.90;;;;;;5048902;28;20196;-83
2022/11/08 03:03:01;;;;;;;16.95;4.10;;;10.30;99.90;;;;;;5043745;28;20513;-81
2022/11/08 03:05:27;;;;;;;14.98;4.38;;;10.30;99.90;;;;;;5027136;28;20138;-81
2022/11/08 03:07:54;;;;;;;11.90;4.32;;;10.30;99.90;;;;;;5029733;28;20139;-81
2022/11/08 03:10:21;;;;;;;19.10;4.32;;;10.20;99.90;;;;;;5050069;28;20118;-82
2022/11/08 03:12:54;;;;;;;15.85;4.38;;;10.20;99.90;;;;;;5033295;28;20848;-81
2022/11/08 03:15:20;;;;;;;8.80;3.67;;;10.20;99.90;;;;;;5033574;28;20095;-82
2022/11/08 03:17:45;;;;;;;15.73;3.78;;;10.30;99.90;;;;;;5033283;28;20142;-82
2022/11/08 03:20:11;;;;;;;15.35;4.50;;;10.30;99.90;;;;;;5023879;28;20074;-82
2022/11/08 03:22:37;;;;;;;12.60;4.32;;;10.20;99.90;;;;;;5050414;28;20160;-81
2022/11/08 03:25:02;;;;;;;15.65;3.78;;;10.20;99.90;;;;;;5037633;28;20127;-82
2022/11/08 03:27:28;;;;;;;10.75;3.63;;;10.20;99.90;;;;;;5032690;28;20045;-81
2022/11/08 03:29:54;;;;;;;16.17;4.68;;;10.20;99.90;;;;;;5051052;28;20048;-83
2022/11/08 03:32:19;;;;;;;9.98;3.67;;;10.20;99.90;;;;;;5048839;28;20041;-84
2022/11/08 03:34:45;;;;;;;13.20;4.25;;;10.20;99.90;;;;;;5032025;28;20057;-82
2022/11/08 03:37:11;;;;;;;12.13;4.10;;;10.20;99.90;;;;;;5047060;28;20044;-82
2022/11/08 03:39:36;;;;;;;13.52;4.30;;;10.20;99.90;;;;;;5047097;28;20415;-81
2022/11/08 03:42:03;;;;;;;12.57;4.03;;;10.10;99.90;;;;;;5049570;28;20114;-81
2022/11/08 03:44:32;;;;;;;11.27;3.90;;;10.10;99.90;;;;;;5033458;28;20048;-81
2022/11/08 03:46:58;;;;;;;13.30;3.88;;;10.10;99.90;;;;;;5046068;28;20448;-81
2022/11/08 03:49:25;;;;;;;12.32;4.38;;;10.10;99.90;;;;;;5048956;28;20053;-84
2022/11/08 03:51:54;;;;;;;16.38;4.10;;;10.10;99.90;;;;;;5048652;28;20576;-82
2022/11/08 03:54:20;;;;;;;10.38;3.70;;;10.10;99.90;;;;;;5065537;28;20071;-81
2022/11/08 03:56:46;;;;;;;12.05;4.05;;;10.10;99.90;;;;;;5033143;28;20100;-82
2022/11/08 03:59:11;;;;;;;13.15;3.92;;;10.10;99.90;;;;;;5064025;28;20045;-82
2022/11/08 04:01:38;;;;;;;14.18;4.20;;;10.00;99.90;;;;;;5064163;28;20098;-81
2022/11/08 04:04:04;;;;;;;15.23;4.32;;;10.00;99.90;;;;;;5066574;28;20040;-81
2022/11/08 04:06:30;;;;;;;15.23;5.18;;;10.00;99.90;;;;;;5066274;28;20084;-81
2022/11/08 04:08:56;;;;;;;12.82;4.50;;;10.00;99.90;;;;;;5060567;28;20068;-82
2022/11/08 04:16:51;;;;;;;9.95;4.13;;;9.90;99.90;;;;;;5062499;28;20053;-81
2022/11/08 04:22:01;;;;;;;18.27;4.70;;;9.90;99.90;;;;;;5048263;28;20057;-82
2022/11/08 04:24:27;;;;;;;15.02;4.82;;;9.90;99.90;;;;;;5047009;28;20041;-86
2022/11/08 04:26:53;;;;;;;15.57;4.45;;;9.80;99.90;;;;;;5015237;28;20095;-81
2022/11/08 04:29:18;;;;;;;13.63;5.07;;;9.80;99.90;;;;;;5032179;28;20045;-81
2022/11/08 04:31:44;;;;;;;10.60;4.60;;;9.80;99.90;;;;;;5025133;28;20106;-83
2022/11/08 04:34:10;;;;;;;12.10;4.20;;;9.80;99.90;;;;;;5036344;28;20565;-82
2022/11/08 04:36:35;;;;;;;13.30;4.43;;;9.80;99.90;;;;;;5043285;28;21097;-83
2022/11/08 04:39:01;;;;;;;11.30;3.83;;;9.80;99.90;;;;;;5045475;28;20975;-82
2022/11/08 04:41:27;;;;;;;10.80;4.05;;;9.80;99.90;;;;;;5035300;28;20728;-81
2022/11/08 04:43:54;;;;;;;16.95;3.80;;;9.80;99.90;;;;;;5064332;28;20132;-81
2022/11/08 04:46:22;;;;;;;14.23;3.97;;;9.80;99.90;;;;;;5066080;28;20052;-81
2022/11/08 04:48:54;;;;;;;11.20;3.78;;;9.90;99.90;;;;;;5063653;28;20165;-82
2022/11/08 04:51:25;;;;;;;14.30;4.03;;;9.80;99.90;;;;;;5048704;28;20052;-82
2022/11/08 04:53:51;;;;;;;12.75;4.63;;;9.90;99.90;;;;;;5031411;28;20214;-82
2022/11/08 04:56:19;;;;;;;9.82;3.45;;;9.90;99.90;;;;;;5053042;28;20094;-81
2022/11/08 04:58:47;;;;;;;10.52;3.53;;;9.80;99.90;;;;;;5041115;28;20137;-83
2022/11/08 05:01:16;;;;;;;11.60;4.20;;;9.90;99.90;;;;;;5048112;28;20055;-81
2022/11/08 05:03:43;;;;;;;10.80;3.70;;;9.80;99.90;;;;;;5050293;28;20542;-85
2022/11/08 05:06:15;;;;;;;8.10;3.88;;;9.90;99.90;;;;;;5046091;28;20065;-82
2022/11/08 05:08:41;;;;;;;11.20;3.63;;;9.80;99.90;;;;;;5044634;28;20048;-82
2022/11/08 05:11:12;;;;;;;9.20;3.40;;;9.80;99.90;;;;;;5039246;28;20394;-84
2022/11/08 05:13:38;;;;;;;13.93;3.72;;;9.80;99.90;;;;;;5029715;28;20056;-81
2022/11/08 05:16:16;;;;;;;9.27;3.38;;;9.80;99.90;;;;;;5029253;28;20036;-82
2022/11/08 05:18:43;;;;;;;12.15;4.25;;;9.70;99.90;;;;;;5037742;28;20060;-82
2022/11/08 05:23:59;;;;;;;16.15;3.60;;;9.80;99.90;;;;;;5045367;28;20045;-81
2022/11/08 05:26:26;;;;;;;9.38;3.22;;;9.70;99.90;;;;;;5048396;28;20045;-81
2022/11/08 05:28:52;;;;;;;15.00;3.75;;;9.80;99.90;;;;;;5032110;28;20049;-81
2022/11/08 05:31:18;;;;;;;10.40;3.13;;;9.80;99.90;;;;;;5014568;28;20105;-80
2022/11/08 05:33:44;;;;;;;13.60;3.58;;;9.80;99.90;;;;;;5028277;28;20040;-81
2022/11/08 05:36:15;;;;;;;12.85;3.40;;;9.70;99.90;;;;;;5031051;28;20521;-82
2022/11/08 05:38:42;;;;;;;10.48;3.20;;;9.80;99.90;;;;;;5033992;28;20062;-81
2022/11/08 05:41:14;;;;;;;9.25;3.25;;;9.80;99.90;;;;;;5031946;28;20187;-82
2022/11/08 05:43:41;;;;;;;7.63;3.00;;;9.80;99.90;;;;;;5049536;28;20048;-82
2022/11/08 05:46:07;;;;;;;8.93;3.08;;;9.70;99.90;;;;;;5044034;28;20048;-81
2022/11/08 05:48:32;;;;;;;13.55;4.03;;;9.70;99.90;;;;;;5032063;28;20045;-83
2022/11/08 05:50:58;;;;;;;7.90;2.70;;;9.70;99.90;;;;;;5048217;28;20045;-81
2022/11/08 05:53:24;;;;;;;13.55;3.42;;;9.70;99.90;;;;;;5033787;28;20037;-82
2022/11/08 05:55:50;;;;;;;12.40;3.90;;;9.70;99.90;;;;;;5049921;28;20106;-82
2022/11/08 05:58:16;;;;;;;11.38;3.08;;;9.60;99.90;;;;;;5047203;28;20091;-82
2022/11/08 06:00:41;;;;;;;9.43;3.50;;;9.60;99.90;;;;;;5032867;28;20140;-83
2022/11/08 06:03:07;;;;;;;9.20;2.80;;;9.50;99.90;;;;;;5055568;28;20463;-82
2022/11/08 06:05:33;;;;;;;8.60;2.80;;;9.50;99.90;;;;;;5059512;28;20247;-83
2022/11/08 06:07:59;;;;;;;10.48;3.38;;;9.50;99.90;;;;;;5013487;28;20839;-80
2022/11/08 06:10:25;;;;;;;8.43;2.90;;;9.40;99.90;;;;;;5029191;28;20053;-82
2022/11/08 06:12:51;;;;;;;10.25;3.03;;;9.40;99.90;;;;;;5046535;28;20056;-82
2022/11/08 06:15:17;;;;;;;7.30;2.83;;;9.40;99.90;;;;;;5036172;28;20389;-82
2022/11/08 06:17:43;;;;;;;9.43;2.85;;;9.40;99.90;;;;;;5047398;28;20056;-87
2022/11/08 06:20:11;;;;;;;10.35;3.30;;;9.40;99.90;;;;;;5050435;28;20045;-81
2022/11/08 06:22:37;;;;;;;10.00;3.63;;;9.30;99.90;;;;;;5042815;28;20048;-81
2022/11/08 06:25:03;;;;;;;10.23;3.40;;;9.40;99.90;;;;;;5054297;28;20515;-81
2022/11/08 06:27:29;;;;;;;7.82;3.10;;;9.30;99.90;;;;;;5010176;28;20047;-81
2022/11/08 06:29:55;;;;;;;9.82;3.40;;;9.30;99.90;;;;;;5036753;28;20128;-81
2022/11/08 06:32:21;;;;;;;7.72;3.38;;;9.20;99.90;;;;;;5053435;28;20048;-81
2022/11/08 06:34:47;;;;;;;7.30;2.90;;;9.30;99.90;;;;;;5046915;28;20465;-81
2022/11/08 06:37:14;;;;;;;11.35;3.10;;;9.30;99.90;;;;;;5060679;28;20487;-81
2022/11/08 06:39:41;;;;;;;11.55;3.90;;;9.30;99.90;;;;;;5030921;28;20045;-80
2022/11/08 06:42:07;;;;;;;8.88;3.58;;;9.30;99.90;;;;;;5035601;28;20053;-81
2022/11/08 06:44:33;;;;;;;10.93;3.28;;;9.30;99.90;;;;;;5034654;28;20045;-80
2022/11/08 06:46:58;;;;;;;12.00;3.45;;;9.30;99.90;;;;;;5032933;28;20103;-82
2022/11/08 06:49:24;;;;;;;8.43;3.20;;;9.30;99.90;;;;;;5045425;28;20132;-82
2022/11/08 06:51:51;;;;;;;7.10;3.08;;;9.30;99.90;;;;;;5049124;28;20057;-82
2022/11/08 06:54:17;;;;;;;9.57;2.95;;;9.30;99.90;;;;;;5052631;28;20457;-83
2022/11/08 06:56:44;;;;;;;11.35;3.22;;;9.40;99.90;;;;;;5060144;28;20088;-81
2022/11/08 06:59:10;;;;;;;11.35;2.90;;;9.30;99.90;;;;;;5032850;28;20057;-82
2022/11/08 07:01:36;;;;;;;7.28;3.25;;;9.30;99.90;;;;;;5052125;28;20043;-83
2022/11/08 07:04:02;;;;;;;8.02;3.38;;;9.30;99.90;;;;;;5035346;28;20045;-83
2022/11/08 07:06:29;;;;;;;7.65;3.40;;;9.40;99.90;;;;;;5052900;28;20060;-83
2022/11/08 07:08:55;;;;;;;10.32;3.30;;;9.40;99.90;;;;;;5036300;28;20087;-83
2022/11/08 07:11:20;;;;;;;7.72;3.92;;;9.50;99.90;;;;;;5052717;28;20095;-83
2022/11/08 07:13:46;;;;;;;7.88;3.22;;;9.50;99.90;;;;;;5050535;28;20106;-83
2022/11/08 07:16:12;;;;;;;10.18;3.50;;;9.50;99.90;;;;;;5049518;28;20052;-82
2022/11/08 07:18:38;;;;;;;8.13;3.38;;;9.60;99.90;;;;;;5038816;28;20434;-82
2022/11/08 07:21:04;;;;;;;6.75;3.83;;;9.70;99.90;;;;;;5045218;28;20548;-82
2022/11/08 07:23:31;;;;;;;8.75;3.13;;;9.70;99.90;;;;;;5062443;28;20401;-83
2022/11/08 07:26:00;;;;;;;10.80;3.58;;;9.70;99.90;;;;;;5039149;28;20045;-83
2022/11/08 07:28:25;;;;;;;12.15;3.38;;;9.80;99.90;;;;;;5052150;28;20742;-84
2022/11/08 07:31:00;;;;;;;10.52;3.30;;;9.80;99.90;;;;;;5068365;28;20045;-86
2022/11/08 07:33:26;;;;;;;6.85;3.03;;;9.80;99.90;;;;;;5047949;28;20049;-84
2022/11/08 07:35:52;;;;;;;8.20;3.03;;;9.80;99.90;;;;;;5059729;28;20052;-87
2022/11/08 07:38:18;;;;;;;9.25;3.60;;;9.80;99.90;;;;;;5050740;28;20037;-82
2022/11/08 07:40:44;;;;;;;10.43;3.00;;;9.80;99.90;;;;;;5052939;28;20048;-82
2022/11/08 07:43:09;;;;;;;7.80;3.00;;;9.80;99.90;;;;;;5047162;28;20037;-83
2022/11/08 07:45:35;;;;;;;7.43;3.00;;;9.80;99.90;;;;;;5035051;28;20414;-84
2022/11/08 07:48:03;;;;;;;9.55;3.50;;;9.80;99.90;;;;;;5065660;28;20394;-82
2022/11/08 07:50:29;;;;;;;8.68;2.80;;;9.90;99.90;;;;;;5035096;28;20490;-83
2022/11/08 07:52:55;;;;;;;7.78;2.88;;;9.90;99.90;;;;;;5068248;28;20127;-88
2022/11/08 07:55:21;;;;;;;10.73;3.13;;;10.00;99.90;;;;;;5051720;28;20179;-82
2022/11/08 07:57:47;;;;;;;7.80;2.95;;;10.00;99.90;;;;;;5032302;28;20049;-83
2022/11/08 08:00:13;;;;;;;7.18;3.13;;;10.10;99.90;;;;;;5068304;28;20107;-82
2022/11/08 08:02:39;;;;;;;9.32;3.33;;;10.20;99.90;;;;;;5034960;28;20059;-82
2022/11/08 08:05:05;;;;;;;9.75;3.90;;;10.20;99.90;;;;;;5067640;28;20052;-82
2022/11/08 08:07:31;;;;;;;7.13;2.70;;;10.30;99.90;;;;;;5053953;28;20060;-82
2022/11/08 08:09:56;;;;;;;8.38;2.70;;;10.40;99.90;;;;;;5060238;28;20041;-87
2022/11/08 08:12:22;;;;;;;8.25;2.78;;;10.40;99.90;;;;;;5034633;28;20049;-83
2022/11/08 08:14:47;;;;;;;7.57;2.38;;;10.50;99.90;;;;;;5051607;28;20045;-82
2022/11/08 08:17:13;;;;;;;9.05;2.50;;;10.50;99.90;;;;;;5051125;28;20067;-82
2022/11/08 08:19:39;;;;;;;5.43;2.50;;;10.50;99.90;;;;;;5026708;28;20131;-83
2022/11/08 08:22:05;;;;;;;8.35;2.70;;;10.60;99.90;;;;;;5052570;28;20094;-82
2022/11/08 08:24:30;;;;;;;12.63;2.60;;;10.70;99.90;;;;;;5059926;28;20409;-83
2022/11/08 08:26:56;;;;;;;9.55;2.75;;;10.70;99.90;;;;;;5056927;28;20086;-84
2022/11/08 08:29:22;;;;;;;6.68;2.80;;;10.80;99.90;;;;;;5042908;28;20493;-82
2022/11/08 08:31:48;;;;;;;7.25;2.72;;;10.70;99.90;;;;;;5038764;28;20084;-82
2022/11/08 08:34:14;;;;;;;7.80;2.53;;;10.70;99.90;;;;;;5050625;28;20041;-82
2022/11/08 08:36:40;;;;;;;10.10;2.83;;;10.70;99.90;;;;;;5031304;28;20122;-83
2022/11/08 08:39:06;;;;;;;6.65;2.20;;;10.70;99.90;;;;;;5050791;28;20055;-84
2022/11/08 08:41:32;;;;;;;5.15;2.10;;;10.80;99.90;;;;;;5051095;28;20040;-82
2022/11/08 08:43:58;;;;;;;5.50;2.53;;;10.80;99.90;;;;;;5018246;28;20052;-82
2022/11/08 08:46:23;;;;;;;6.60;2.30;;;10.80;99.90;;;;;;5067036;28;20371;-82
2022/11/08 08:48:49;;;;;;;5.38;2.42;;;10.90;99.90;;;;;;5060838;28;20041;-84
2022/11/08 08:51:15;;;;;;;8.23;2.38;;;10.90;99.90;;;;;;5029520;28;20099;-83
2022/11/08 08:53:41;;;;;;;4.22;2.00;;;11.00;99.90;;;;;;5024526;28;20037;-82
2022/11/08 08:56:07;;;;;;;6.88;1.90;;;11.10;99.90;;;;;;5050561;28;20131;-83
2022/11/08 08:58:33;;;;;;;7.90;2.35;;;11.20;99.90;;;;;;5067446;28;20096;-82
2022/11/08 09:01:07;;;;;;;8.98;2.30;;;11.20;99.90;;;;;;5050486;28;20076;-82
2022/11/08 09:03:34;;;;;;;5.13;1.80;;;11.40;99.90;;;;;;5046065;28;20041;-82
2022/11/08 09:06:00;;;;;;;5.28;1.75;;;11.40;99.90;;;;;;5036955;28;20052;-83
2022/11/08 09:08:26;;;;;;;4.80;1.88;;;11.50;99.90;;;;;;5057913;28;20048;-82
2022/11/08 09:10:57;;;;;;;3.60;1.85;;;11.50;99.90;;;;;;5063925;28;20493;-82
2022/11/08 09:13:27;;;;;;;3.80;1.88;;;11.60;99.90;;;;;;5030187;28;20032;-84
2022/11/08 09:15:53;;;;;;;3.95;1.90;;;11.80;99.90;;;;;;5049429;28;20091;-82
2022/11/08 09:18:20;;;;;;;5.38;2.10;;;11.90;99.90;;;;;;5043513;28;20049;-83
2022/11/08 09:20:46;;;;;;;4.57;1.88;;;12.00;99.90;;;;;;5049244;28;20106;-85
2022/11/08 09:23:13;;;;;;;5.50;1.80;;;12.20;99.90;;;;;;5038514;28;20103;-83
2022/11/08 09:25:38;;;;;;;6.97;2.50;;;12.30;99.90;;;;;;5065676;28;20132;-82
2022/11/08 09:28:04;;;;;;;4.78;2.13;;;12.40;99.90;;;;;;5054422;28;20125;-82
2022/11/08 09:30:30;;;;;;;3.35;1.60;;;12.50;99.90;;;;;;5037457;28;20084;-82
2022/11/08 09:32:55;;;;;;;7.75;2.22;;;12.50;99.90;;;;;;5070140;28;20541;-83
2022/11/08 09:35:22;;;;;;;5.90;2.00;;;12.60;99.90;;;;;;5053338;28;20069;-82
2022/11/08 09:37:47;;;;;;;6.47;1.90;;;12.70;99.90;;;;;;5054009;28;20051;-83
2022/11/08 09:40:19;;;;;;;4.65;1.73;;;12.80;99.90;;;;;;5053867;28;20044;-82
2022/11/08 09:43:02;;;;;;;3.72;1.90;;;12.90;99.90;;;;;;5071004;28;20041;-81
2022/11/08 09:45:35;;;;;;;4.20;1.95;;;13.00;99.90;;;;;;5064101;28;20045;-82
2022/11/08 09:48:05;;;;;;;5.80;1.90;;;13.00;99.90;;;;;;5054250;28;20087;-83
2022/11/08 09:50:38;;;;;;;5.07;2.15;;;13.00;99.90;;;;;;5053351;28;20097;-82
2022/11/08 09:53:17;;;;;;;5.03;1.92;;;13.10;99.90;;;;;;5044684;28;20060;-82
2022/11/08 09:55:57;;;;;;;4.05;1.70;;;13.10;99.90;;;;;;5050024;28;20072;-82
2022/11/08 09:58:44;;;;;;;3.25;1.98;;;13.20;99.90;;;;;;5033081;28;20037;-82
2022/11/08 10:01:12;;;;;;;5.40;2.08;;;13.20;99.90;;;;;;5049431;28;20045;-86
2022/11/08 10:03:41;;;;;;;7.22;1.90;;;13.30;99.90;;;;;;5000259;28;20055;-84
2022/11/08 10:06:48;;;;;;;5.97;1.95;;;13.40;99.90;;;;;;5069358;28;20048;-82
2022/11/08 10:09:29;;;;;;;4.68;1.75;;;13.40;99.90;;;;;;5036099;28;20067;-82
2022/11/08 10:12:13;;;;;;;9.52;2.10;;;13.40;99.90;;;;;;5039248;28;20494;-83
2022/11/08 10:15:08;;;;;;;3.72;1.80;;;13.50;99.90;;;;;;5042907;28;20069;-81
2022/11/08 10:17:48;;;;;;;4.68;1.90;;;13.50;99.90;;;;;;5051892;28;20105;-81
2022/11/08 10:20:34;;;;;;;6.88;1.92;;;13.50;99.90;;;;;;5071357;28;20040;-85
2022/11/08 10:23:11;;;;;;;4.18;2.08;;;13.60;99.90;;;;;;5053919;28;20052;-83
2022/11/08 10:25:58;;;;;;;8.90;1.85;;;13.70;99.90;;;;;;5049192;28;20060;-83
2022/11/08 10:28:36;;;;;;;5.78;2.05;;;13.70;99.90;;;;;;5051560;28;20399;-82
2022/11/08 10:31:02;;;;;;;4.72;1.80;;;13.80;99.90;;;;;;5051877;28;20272;-83
2022/11/08 10:33:34;;;;;;;3.65;1.65;;;13.90;99.90;;;;;;5030835;28;20156;-82
2022/11/08 10:36:06;;;;;;;4.05;1.80;;;14.00;99.90;;;;;;5031686;28;20069;-83
2022/11/08 10:39:16;;;;;;;4.97;2.00;;;14.00;99.90;;;;;;5049495;28;20169;-82
2022/11/08 10:41:44;;;;;;;4.45;1.92;;;14.10;99.90;;;;;;5008724;28;20056;-82
2022/11/08 10:44:23;;;;;;;4.45;1.77;;;14.20;99.90;;;;;;5051877;28;20131;-81
2022/11/08 10:46:54;;;;;;;5.32;1.75;;;14.20;99.90;;;;;;5051176;28;20453;-82
2022/11/08 10:49:24;;;;;;;3.22;1.83;;;14.10;99.90;;;;;;5035953;28;20049;-81
2022/11/08 10:51:55;;;;;;;3.78;1.70;;;14.10;99.90;;;;;;5050954;28;20136;-82
2022/11/08 10:54:49;;;;;;;3.08;1.65;;;14.00;99.90;;;;;;5043780;28;20040;-84
2022/11/08 10:57:23;;;;;;;3.03;1.77;;;13.90;99.90;;;;;;5029443;28;20132;-83
2022/11/08 10:59:49;;;;;;;5.43;1.50;;;13.80;99.90;;;;;;5035679;28;20046;-82
2022/11/08 11:02:28;;;;;;;5.50;2.20;;;13.80;99.90;;;;;;5053372;28;20516;-83
2022/11/08 11:05:14;;;;;;;3.00;1.77;;;13.70;99.90;;;;;;5045477;28;20166;-82
2022/11/08 11:07:42;;;;;;;4.45;1.52;;;13.70;99.90;;;;;;5024161;28;20060;-82
2022/11/08 11:10:46;;;;;;;3.13;1.70;;;13.60;99.90;;;;;;5068303;28;20088;-82
2022/11/08 11:13:20;;;;;;;4.13;1.73;;;13.50;99.90;;;;;;5007907;28;20107;-82
2022/11/08 11:15:54;;;;;;;4.35;1.83;;;13.40;99.90;;;;;;5052072;28;20187;-84
2022/11/08 11:18:28;;;;;;;4.47;2.10;;;13.40;99.90;;;;;;5048335;28;20093;-87
2022/11/08 11:21:11;;;;;;;6.28;2.00;;;13.60;99.90;;;;;;5063434;28;20041;-82
2022/11/08 11:23:44;;;;;;;3.72;1.48;;;13.70;99.90;;;;;;5067687;28;20503;-83
2022/11/08 11:26:28;;;;;;;3.53;1.67;;;13.80;99.90;;;;;;5067957;28;20149;-82
2022/11/08 11:29:03;;;;;;;4.65;1.70;;;14.00;99.90;;;;;;5029847;28;20100;-81
2022/11/08 11:31:29;;;;;;;6.70;2.10;;;14.10;99.90;;;;;;5031906;28;20129;-82
2022/11/08 11:33:56;;;;;;;7.25;1.67;;;14.30;99.90;;;;;;5060185;28;20153;-83
2022/11/08 11:36:26;;;;;;;2.45;1.60;;;14.40;99.90;;;;;;5028273;28;20061;-87
2022/11/08 11:39:05;;;;;;;5.57;1.48;;;14.50;99.90;;;;;;5023715;28;20049;-81
2022/11/08 11:41:42;;;;;;;6.60;1.80;;;14.50;99.90;;;;;;5022375;28;20060;-82
2022/11/08 11:44:21;;;;;;;6.88;2.03;;;14.50;99.90;;;;;;5068011;28;20136;-82
2022/11/08 11:47:16;;;;;;;5.88;1.60;;;14.50;99.90;;;;;;5066358;28;20049;-82
2022/11/08 11:49:44;;;;;;;6.15;1.75;;;14.60;99.90;;;;;;5066821;28;20040;-83
2022/11/08 11:52:18;;;;;;;4.90;1.63;;;14.50;99.90;;;;;;5066660;28;20049;-83
2022/11/08 11:54:48;;;;;;;5.05;1.40;;;14.60;99.90;;;;;;5049542;28;20625;-82
2022/11/08 11:57:36;;;;;;;5.57;1.70;;;14.70;99.90;;;;;;5021358;28;20083;-82
2022/11/08 12:00:09;;;;;;;5.03;1.83;;;14.70;99.90;;;;;;5040428;28;20137;-82
2022/11/08 12:03:00;;;;;;;4.00;1.52;;;14.70;99.90;;;;;;5029526;28;20076;-83
2022/11/08 12:05:44;;;;;;;5.80;1.90;;;14.70;99.90;;;;;;5043983;28;20052;-86
2022/11/08 12:08:25;;;;;;;3.53;1.50;;;14.70;99.90;;;;;;5040956;28;20136;-82
2022/11/08 12:11:22;;;;;;;6.75;1.80;;;14.70;99.90;;;;;;5036893;28;20059;-82
2022/11/08 12:14:24;;;;;;;8.23;1.63;;;14.80;99.90;;;;;;5021070;28;20505;-82
2022/11/08 12:17:22;;;;;;;5.60;2.25;;;14.90;99.90;;;;;;5065896;28;20049;-82
2022/11/08 12:20:17;;;;;;;4.50;1.67;;;14.80;99.90;;;;;;5030696;28;20175;-82
2022/11/08 12:23:33;;;;;;;4.13;1.88;;;14.80;99.90;;;;;;5033458;28;20075;-82
2022/11/08 12:26:26;;;;;;;9.68;1.83;;;14.90;99.90;;;;;;4973206;28;20046;-82
2022/11/08 12:29:10;;;;;;;3.33;1.45;;;14.90;99.90;;;;;;5032725;28;20146;-83
2022/11/08 12:32:08;;;;;;;4.93;1.70;;;14.90;99.90;;;;;;5064462;28;20055;-83
2022/11/08 12:34:48;;;;;;;3.45;1.52;;;14.90;99.90;;;;;;5023128;28;20060;-82
2022/11/08 12:37:34;;;;;;;4.45;1.65;;;14.90;99.90;;;;;;5035265;28;20081;-82
2022/11/08 12:40:06;;;;;;;4.15;1.75;;;14.80;99.90;;;;;;5043658;28;20581;-82
2022/11/08 12:42:41;;;;;;;3.92;1.30;;;14.80;99.90;;;;;;5059119;28;20056;-88
2022/11/08 12:45:21;;;;;;;4.40;1.80;;;14.70;99.90;;;;;;5036930;28;20044;-83
2022/11/08 12:48:16;;;;;;;4.78;2.00;;;14.70;99.90;;;;;;5068268;28;20449;-83
2022/11/08 12:50:56;;;;;;;4.13;1.50;;;14.60;99.90;;;;;;5025473;28;20060;-83
2022/11/08 12:53:56;;;;;;;2.65;1.58;;;14.60;99.90;;;;;;5038053;28;20049;-83
2022/11/08 12:56:28;;;;;;;6.55;1.80;;;14.50;99.90;;;;;;5042748;28;20123;-83
2022/11/08 12:58:55;;;;;;;4.50;1.70;;;14.60;99.90;;;;;;5044049;28;20040;-83
2022/11/08 13:01:22;;;;;;;4.40;1.75;;;14.70;99.90;;;;;;5032359;28;20052;-83
2022/11/08 13:03:50;;;;;;;4.00;1.90;;;14.70;99.90;;;;;;5065611;28;20057;-83
2022/11/08 13:06:25;;;;;;;5.05;1.73;;;14.70;99.90;;;;;;5060837;28;20166;-83
2022/11/08 13:09:16;;;;;;;5.55;1.73;;;14.60;99.90;;;;;;5032837;28;20076;-83
2022/11/08 13:11:48;;;;;;;5.15;1.80;;;14.40;99.90;;;;;;5066034;28;20044;-83
2022/11/08 13:14:16;;;;;;;4.30;1.60;;;14.30;99.90;;;;;;5067371;28;20040;-83
2022/11/08 13:16:45;;;;;;;4.32;1.95;;;14.30;99.90;;;;;;5056457;28;20578;-82
2022/11/08 13:19:27;;;;;;;3.17;1.60;;;14.40;99.90;;;;;;5049940;28;20049;-83
2022/11/08 13:21:54;;;;;;;6.07;1.73;;;14.50;99.90;;;;;;5032707;28;20063;-84